createdAt,value
2019-03-03T00:05:11.147Z,13.50
2019-03-03T00:15:15.355Z,15.10
2019-03-03T00:25:19.196Z,13.53
2019-03-03T00:35:23.527Z,13.17
2019-03-03T00:45:40.074Z,14.93
2019-03-03T00:55:52.751Z,14.37
2019-03-03T01:06:14.741Z,14.30
2019-03-03T01:16:28.261Z,14.83
2019-03-03T01:26:32.415Z,14.27
2019-03-03T01:36:36.496Z,13.40
2019-03-03T01:46:40.307Z,15.67
2019-03-03T01:56:44.672Z,13.30
2019-03-03T02:06:49.134Z,13.10
2019-03-03T02:16:53.283Z,13.13
2019-03-03T02:26:57.663Z,10.37
2019-03-03T02:37:01.806Z,10.63
2019-03-03T02:47:06.150Z,10.93
2019-03-03T02:57:10.359Z,11.77
2019-03-03T03:07:18.668Z,10.77
2019-03-03T03:17:38.257Z,8.13
2019-03-03T03:27:58.340Z,7.20
2019-03-03T03:38:18.672Z,7.00
2019-03-03T03:48:40.815Z,5.63
2019-03-03T03:58:57.372Z,5.30
2019-03-03T04:09:19.355Z,5.27
2019-03-03T04:19:31.428Z,4.13
2019-03-03T04:29:57.776Z,3.53
2019-03-03T04:40:09.280Z,4.10
2019-03-03T04:50:25.602Z,3.50
2019-03-03T05:00:48.552Z,4.30
2019-03-03T05:11:13.908Z,2.50
2019-03-03T05:21:17.705Z,3.27
2019-03-03T05:31:22.027Z,3.20
2019-03-03T05:41:26.096Z,3.80
2019-03-03T05:51:30.148Z,4.03
2019-03-03T06:01:34.015Z,3.57
2019-03-03T06:11:38.334Z,5.10
2019-03-03T06:21:42.379Z,4.57
2019-03-03T06:31:46.440Z,5.63
2019-03-03T06:41:50.796Z,4.27
2019-03-03T06:51:54.582Z,5.30
2019-03-03T07:01:59.152Z,5.73
2019-03-03T07:12:03.225Z,5.03
2019-03-03T07:22:07.349Z,5.03
2019-03-03T07:32:11.428Z,4.80
2019-03-03T07:42:15.499Z,4.30
2019-03-03T07:52:19.767Z,3.87
2019-03-03T08:02:23.895Z,4.60
2019-03-03T08:12:28.216Z,4.17
2019-03-03T08:22:32.512Z,4.83
2019-03-03T08:32:42.427Z,4.70
2019-03-03T08:43:10.571Z,5.17
2019-03-03T08:53:54.100Z,5.27
2019-03-03T09:04:06.462Z,5.43
2019-03-03T09:14:38.677Z,4.37
2019-03-03T09:25:04.654Z,5.17
2019-03-03T09:35:21.368Z,4.97
2019-03-03T09:45:34.490Z,4.37
2019-03-03T09:55:52.590Z,4.10
2019-03-03T10:06:21.692Z,4.67
2019-03-03T10:16:46.864Z,5.17
2019-03-03T10:27:01.743Z,5.27
2019-03-03T10:37:32.468Z,5.13
2019-03-03T10:47:58.682Z,4.70
2019-03-03T10:58:15.652Z,5.50
2019-03-03T11:08:38.642Z,4.43
2019-03-03T11:19:04.876Z,3.90
2019-03-03T11:29:28.012Z,2.93
2019-03-03T11:39:54.087Z,3.10
2019-03-03T11:50:09.924Z,4.27
2019-03-03T12:00:31.571Z,4.00
2019-03-03T12:10:53.448Z,4.40
2019-03-03T12:21:10.507Z,2.93
2019-03-03T12:31:32.391Z,3.20
2019-03-03T12:42:03.701Z,3.60
2019-03-03T12:52:30.816Z,3.37
2019-03-03T13:02:54.324Z,3.30
2019-03-03T13:13:07.056Z,3.00
2019-03-03T13:23:42.614Z,3.93
2019-03-03T13:34:09.055Z,2.60
2019-03-03T13:44:13.255Z,2.17
2019-03-03T13:54:17.930Z,2.43
2019-03-03T14:04:22.058Z,2.60
2019-03-03T14:14:26.225Z,2.37
2019-03-03T14:24:30.255Z,2.60
2019-03-03T14:34:34.317Z,2.23
2019-03-03T14:44:38.392Z,1.10
2019-03-03T14:54:42.755Z,1.90
2019-03-03T15:04:47.056Z,1.73
2019-03-03T15:14:50.912Z,1.40
2019-03-03T15:24:54.728Z,1.10
2019-03-03T15:34:59.400Z,1.90
2019-03-03T15:45:03.685Z,1.80
2019-03-03T15:55:09.146Z,1.27
2019-03-03T16:05:13.815Z,1.60
2019-03-03T16:15:18.485Z,1.07
2019-03-03T16:25:22.583Z,0.93
2019-03-03T16:35:26.976Z,1.07
2019-03-03T16:45:39.944Z,2.20
2019-03-03T16:55:47.784Z,3.30
2019-03-03T17:06:07.053Z,3.57
2019-03-03T17:16:11.095Z,3.83
2019-03-03T17:26:15.269Z,4.07
2019-03-03T17:36:19.903Z,3.93
2019-03-03T17:46:24.298Z,4.10
2019-03-03T17:56:28.607Z,5.33
2019-03-03T18:06:38.768Z,5.50
2019-03-03T18:16:39.336Z,5.60
2019-03-03T18:26:44.153Z,7.47
2019-03-03T18:36:48.605Z,7.43
2019-03-03T18:46:53.032Z,7.57
2019-03-03T18:56:57.264Z,8.57
2019-03-03T19:07:01.242Z,7.77
2019-03-03T19:17:06.001Z,9.80
2019-03-03T19:27:09.882Z,11.47
2019-03-03T19:37:14.368Z,10.40
2019-03-03T19:47:19.110Z,10.30
2019-03-03T19:57:23.557Z,11.40
2019-03-03T20:07:28.122Z,11.57
2019-03-03T20:17:32.000Z,11.83
2019-03-03T20:27:35.949Z,12.90
2019-03-03T20:37:40.480Z,12.53
2019-03-03T20:47:44.859Z,14.43
2019-03-03T20:57:49.244Z,13.80
2019-03-03T21:07:53.109Z,14.87
2019-03-03T21:17:57.058Z,12.00
2019-03-03T21:28:01.367Z,11.63
2019-03-03T21:38:05.338Z,10.83
2019-03-03T21:48:09.126Z,9.70
2019-03-03T21:58:12.933Z,9.43
2019-03-03T22:08:17.304Z,9.00
2019-03-03T22:18:21.353Z,8.97
2019-03-03T22:28:25.432Z,9.30
2019-03-03T22:38:29.248Z,8.23
2019-03-03T22:48:33.557Z,7.63
2019-03-03T22:58:37.608Z,7.70
2019-03-03T23:08:47.763Z,7.37
2019-03-03T23:19:25.361Z,6.73
2019-03-03T23:29:29.916Z,7.40
2019-03-03T23:39:34.059Z,7.00
2019-03-03T23:49:38.111Z,7.10
2019-03-03T23:59:42.443Z,7.70
